WetterOnline ( https://www.wetteronline.at )

Wetter aktuell Norderney

Aktuelles Wetter: Norderney (16m)

6-stündlich | Neueste Meldungen
Ortszeit Temperatur Wetter
Do, 25.07. 8:00 14.4° C bewölkt
Do, 25.07. 2:00 15.7° C wolkenlos
Mi, 24.07. 20:00 17.1° C leicht bewölkt
Mi, 24.07. 14:00 18.8° C wolkig
Mi, 24.07. 8:00 17.0° C wolkig
Mi, 24.07. 2:00 17.3° C fast wolkenlos
Di, 23.07. 20:00 18.8° C wolkig
Di, 23.07. 14:00 21.2° C leicht bewölkt
Ortszeit Temperatur Wetter
Do, 25.07. 9:00 15.6° C wolkig
Do, 25.07. 8:50 15.6° C wolkig
Do, 25.07. 8:40 15.5° C bedeckt
Do, 25.07. 8:30 14.9° C bewölkt
Do, 25.07. 8:20 14.9° C bewölkt
Do, 25.07. 8:10 14.9° C bewölkt
Do, 25.07. 8:00 14.4° C bewölkt
Do, 25.07. 7:30 14.1° C bedeckt
Do, 25.07. 7:00 14.3° C bedeckt
Do, 25.07. 6:30 14.5° C bedeckt
Do, 25.07. 6:00 14.6° C bedeckt
Ortszeit Relative Feuchte Sichtweite
Do, 25.07. 8:00 77% 65 km
Do, 25.07. 2:00 70% 35 km
Mi, 24.07. 20:00 63% 55 km
Mi, 24.07. 14:00 68% 16 km
Mi, 24.07. 8:00 74% 40 km
Mi, 24.07. 2:00 79% 30 km
Di, 23.07. 20:00 82% 65 km
Di, 23.07. 14:00 77% 26 km
Ortszeit Relative Feuchte Sichtweite
Do, 25.07. 9:00 73% 50 km
Do, 25.07. 8:50 73% -
Do, 25.07. 8:40 74% -
Do, 25.07. 8:30 75% 65 km
Do, 25.07. 8:20 75% -
Do, 25.07. 8:10 75% -
Do, 25.07. 8:00 77% 65 km
Do, 25.07. 7:30 81% 50 km
Do, 25.07. 7:00 81% 60 km
Do, 25.07. 6:30 81% 50 km
Do, 25.07. 6:00 80% 45 km
Ortszeit Niederschlagsmenge Niederschlagsart
Do, 25.07. 8:00 0.0 l/m2 in 12 Std. -
Do, 25.07. 2:00 0.0 l/m2 in 6 Std. -
Mi, 24.07. 20:00 0.0 l/m2 in 12 Std. -
Mi, 24.07. 14:00 0.0 l/m2 in 6 Std. -
Mi, 24.07. 8:00 0.0 l/m2 in 12 Std. -
Mi, 24.07. 2:00 0.0 l/m2 in 6 Std. -
Di, 23.07. 20:00 0.0 l/m2 in 12 Std. -
Di, 23.07. 14:00 0.0 l/m2 in 6 Std. -
Ortszeit Niederschlagsmenge Niederschlagsart
Do, 25.07. 9:00 0.0 l/m2 in 1 Std. -
Do, 25.07. 8:50 keine Meldung -
Do, 25.07. 8:40 keine Meldung -
Do, 25.07. 8:30 0.0 l/m2 in 30 Min -
Do, 25.07. 8:20 keine Meldung -
Do, 25.07. 8:10 keine Meldung -
Do, 25.07. 8:00 0.0 l/m2 in 1 Std. -
Do, 25.07. 7:30 0.0 l/m2 in 30 Min -
Do, 25.07. 7:00 0.0 l/m2 in 1 Std. -
Do, 25.07. 6:30 0.0 l/m2 in 30 Min -
Do, 25.07. 6:00 0.0 l/m2 in 1 Std. -
Ortszeit Stärke Spitze Richtung
km/h Bft. km/h Grad Sektor
Do, 25.07. 8:00 17 3 28 160° S
Do, 25.07. 2:00 7 2 25 290° W
Mi, 24.07. 20:00 18 3 32 310° NW
Mi, 24.07. 14:00 22 4 40 310° NW
Mi, 24.07. 8:00 30 5 44 330° NW
Mi, 24.07. 2:00 36 5 43 330° NW
Di, 23.07. 20:00 31 5 39 310° NW
Di, 23.07. 14:00 25 4 36 280° W
Ortszeit Stärke Spitze Richtung
km/h Bft. km/h Grad Sektor
Do, 25.07. 9:00 22 4 32 170° S
Do, 25.07. 8:50 22 4 - 170° S
Do, 25.07. 8:40 18 3 - 170° S
Do, 25.07. 8:30 18 3 29 170° S
Do, 25.07. 8:20 18 3 - 170° S
Do, 25.07. 8:10 14 3 - 160° S
Do, 25.07. 8:00 17 3 28 160° S
Do, 25.07. 7:30 14 3 29 160° S
Do, 25.07. 7:00 17 3 26 160° S
Do, 25.07. 6:30 15 3 24 170° S
Do, 25.07. 6:00 13 3 20 160° S
Ortszeit Untergrenze Bedeckung Gattung
total tief tief mittel hoch
Do, 25.07. 8:00 3900 m 8/8 7/8 - - -
Do, 25.07. 2:00 - 0/8 0/8 - - -
Mi, 24.07. 20:00 810 m 2/8 2/8 - - -
Mi, 24.07. 14:00 660 m 8/8 1/8 - - -
Mi, 24.07. 8:00 720 m 7/8 3/8 - - -
Mi, 24.07. 2:00 450 m 1/8 1/8 - - -
Di, 23.07. 20:00 360 m 6/8 6/8 - - -
Di, 23.07. 14:00 2400 m 3/8 3/8 - - -
Ortszeit Bedeckungsgrad in Achtel und Wolkenuntergrenze
Do, 25.07. 9:00 2(2400m) 8(3900m) 8(9000m)
Do, 25.07. 8:50 2(2400m) 8(3900m) 8(9000m)
Do, 25.07. 8:40 8
Do, 25.07. 8:30 5(3000m) 7(3900m) 7(8100m)
Do, 25.07. 8:20 5(3000m) 7(3900m) 7(8100m)
Do, 25.07. 8:10 7
Do, 25.07. 8:00 7(3900m) 8(8400m)
Do, 25.07. 7:30 4(3300m) 8(3900m)
Do, 25.07. 7:00 8(3600m)
Do, 25.07. 6:30 8(3600m) 8(4200m)
Do, 25.07. 6:00 8(3600m) 8(4500m)
Ortszeit Luftdruck NN (hPa) Tendenz (hPa in 3 Std.)
Do, 25.07. 8:00 1016 - 0,8
Do, 25.07. 2:00 1018 - 0,9
Mi, 24.07. 20:00 1019 - 0,9
Mi, 24.07. 14:00 1020 + 0,3
Mi, 24.07. 8:00 1019 + 0,7
Mi, 24.07. 2:00 1018 + 1,0
Di, 23.07. 20:00 1016 + 1,2
Di, 23.07. 14:00 1014 + 0,1
Ortszeit Luftdruck NN (hPa) Tendenz (hPa in 3 Std.)
Do, 25.07. 9:00 1015 - 0,9
Do, 25.07. 8:50 1015 keine Meldung
Do, 25.07. 8:40 1016 keine Meldung
Do, 25.07. 8:30 1016 - 1,0
Do, 25.07. 8:20 1016 keine Meldung
Do, 25.07. 8:10 1016 keine Meldung
Do, 25.07. 8:00 1016 - 0,8
Do, 25.07. 7:30 1016 - 1,1
Do, 25.07. 7:00 1016 - 1,1
Do, 25.07. 6:30 1016 - 0,9
Do, 25.07. 6:00 1016 - 1,5
Ortszeit Schneehöhe (cm)
Do, 25.07. 8:00 0
Do, 25.07. 2:00 0
Mi, 24.07. 20:00 0
Mi, 24.07. 14:00 0
Mi, 24.07. 8:00 0
Mi, 24.07. 2:00 0
Di, 23.07. 20:00 0
Di, 23.07. 14:00 0
Ortszeit Schneehöhe (cm)
Do, 25.07. 9:00 0
Do, 25.07. 8:50 0
Do, 25.07. 8:40 -
Do, 25.07. 8:30 0
Do, 25.07. 8:20 0
Do, 25.07. 8:10 -
Do, 25.07. 8:00 0
Do, 25.07. 7:30 0
Do, 25.07. 7:00 0
Do, 25.07. 6:30 0
Do, 25.07. 6:00 0
Link zu dieser Seite / Seite empfehlen

Das Wetter in ...